Time;durP1;ratioP1;P1;durP2;ratioP2;P2;SDS_P1;SDS_P2;PMS_P1;PMS_P2;Temp;Humidity;BMP_temperature;BMP_pressure;BME280_temperature;BME280_humidity;BME280_pressure;Samples;Min_cycle;Max_cycle;Signal;HPM_P1;HPM_P2
2022/01/14 07:01:30;;;;;;;51.78;25.58;;;;;;;;;;5360956;23;20060;-76
2022/01/14 07:03:57;;;;;;;53.08;25.65;;;;;;;;;;4888473;29;20050;-75
2022/01/14 07:06:23;;;;;;;50.70;24.52;;;;;;;;;;4897923;29;20057;-75
2022/01/14 07:08:50;;;;;;;48.80;24.52;;;;;;;;;;4895690;29;20068;-77
2022/01/14 07:11:18;;;;;;;53.25;27.23;;;;;;;;;;4899536;29;20071;-75
2022/01/14 07:13:44;;;;;;;55.47;26.58;;;;;;;;;;4904293;29;20052;-75
2022/01/14 07:16:11;;;;;;;58.92;26.35;;;;;;;;;;4895162;29;20049;-78
2022/01/14 07:18:37;;;;;;;54.88;26.58;;;;;;;;;;4911231;29;20044;-75
2022/01/14 07:21:04;;;;;;;59.67;27.70;;;;;;;;;;4896470;29;20491;-75
2022/01/14 07:23:31;;;;;;;60.22;26.98;;;;;;;;;;4894630;29;20109;-78
2022/01/14 07:25:57;;;;;;;53.67;27.27;;;;;;;;;;4894672;29;20100;-76
2022/01/14 07:28:24;;;;;;;55.08;26.65;;;;;;;;;;4893994;29;20056;-76
2022/01/14 07:30:51;;;;;;;52.95;27.17;;;;;;;;;;4893115;29;20053;-75
2022/01/14 07:33:18;;;;;;;56.05;26.88;;;;;;;;;;4896491;29;20139;-76
2022/01/14 07:35:44;;;;;;;54.97;27.67;;;;;;;;;;4894215;29;20097;-79
2022/01/14 07:38:11;;;;;;;59.78;28.80;;;;;;;;;;4877233;29;20048;-78
2022/01/14 07:40:39;;;;;;;52.97;26.45;;;;;;;;;;4893543;29;20056;-78
2022/01/14 07:43:06;;;;;;;49.45;25.88;;;;;;;;;;4873820;29;20442;-75
2022/01/14 07:45:33;;;;;;;58.08;27.52;;;;;;;;;;4895950;29;20119;-75
2022/01/14 07:47:59;;;;;;;51.55;26.05;;;;;;;;;;4895333;29;20535;-75
2022/01/14 07:50:28;;;;;;;48.87;25.90;;;;;;;;;;4893485;29;20052;-75
2022/01/14 07:52:55;;;;;;;53.28;26.35;;;;;;;;;;4895335;29;20289;-75
2022/01/14 07:55:21;;;;;;;51.28;26.02;;;;;;;;;;4892344;29;20111;-76
2022/01/14 07:57:48;;;;;;;50.58;26.08;;;;;;;;;;4875967;29;20048;-76
2022/01/14 08:00:16;;;;;;;54.47;26.15;;;;;;;;;;4896251;29;20433;-76
2022/01/14 08:02:43;;;;;;;61.30;26.67;;;;;;;;;;4897923;29;20057;-76
2022/01/14 08:05:10;;;;;;;75.07;26.45;;;;;;;;;;4897261;29;20623;-76
2022/01/14 08:07:44;;;;;;;58.17;27.00;;;;;;;;;;4897291;29;20052;-76
2022/01/14 08:10:12;;;;;;;54.00;26.27;;;;;;;;;;4881274;29;20048;-77
2022/01/14 08:12:40;;;;;;;57.80;27.60;;;;;;;;;;4898157;29;20072;-76
2022/01/14 08:15:11;;;;;;;46.72;25.25;;;;;;;;;;4898316;29;20100;-75
2022/01/14 08:17:38;;;;;;;53.88;25.50;;;;;;;;;;4897706;29;20049;-76
2022/01/14 08:20:07;;;;;;;54.42;26.02;;;;;;;;;;4880880;29;20045;-76
2022/01/14 08:22:34;;;;;;;51.65;25.33;;;;;;;;;;4896825;29;20044;-76
2022/01/14 08:25:02;;;;;;;51.55;27.17;;;;;;;;;;4894408;29;20668;-76
2022/01/14 08:27:29;;;;;;;52.70;26.25;;;;;;;;;;4899513;29;20057;-76
2022/01/14 08:29:56;;;;;;;52.80;24.48;;;;;;;;;;4880987;29;20064;-76
2022/01/14 08:32:23;;;;;;;54.67;26.00;;;;;;;;;;4881279;29;20048;-76
2022/01/14 08:34:50;;;;;;;54.15;26.70;;;;;;;;;;4897125;29;20072;-76
2022/01/14 08:37:17;;;;;;;51.55;25.23;;;;;;;;;;4894206;29;20058;-77
2022/01/14 08:39:44;;;;;;;49.45;25.90;;;;;;;;;;4896573;29;20068;-76
2022/01/14 08:42:12;;;;;;;58.22;27.23;;;;;;;;;;4897896;29;20055;-76
2022/01/14 08:44:40;;;;;;;59.30;28.73;;;;;;;;;;4880412;29;20057;-76
2022/01/14 08:47:09;;;;;;;55.83;27.58;;;;;;;;;;4896980;29;20044;-75
2022/01/14 08:49:41;;;;;;;57.15;28.35;;;;;;;;;;4896686;29;20051;-76
2022/01/14 08:52:10;;;;;;;57.53;29.45;;;;;;;;;;4892999;29;20045;-76
2022/01/14 08:54:37;;;;;;;57.78;27.77;;;;;;;;;;4880583;29;20049;-76
2022/01/14 08:57:05;;;;;;;59.25;29.17;;;;;;;;;;4897398;29;20048;-76
2022/01/14 08:59:32;;;;;;;59.33;28.42;;;;;;;;;;4896791;29;20048;-76
2022/01/14 09:01:59;;;;;;;56.08;27.88;;;;;;;;;;4896303;29;20072;-76
2022/01/14 09:04:26;;;;;;;59.33;28.30;;;;;;;;;;4895071;29;20044;-76
2022/01/14 09:06:53;;;;;;;54.83;27.88;;;;;;;;;;4893952;29;20552;-76
2022/01/14 09:09:22;;;;;;;61.08;27.98;;;;;;;;;;4886432;29;20632;-76
2022/01/14 09:11:48;;;;;;;58.53;28.80;;;;;;;;;;4896426;29;20170;-77
2022/01/14 09:14:15;;;;;;;53.63;27.27;;;;;;;;;;4879089;29;20051;-76
2022/01/14 09:16:42;;;;;;;57.22;27.67;;;;;;;;;;4896558;29;20048;-77
2022/01/14 09:19:09;;;;;;;54.65;26.83;;;;;;;;;;4892744;29;20053;-77
2022/01/14 09:21:36;;;;;;;52.30;25.95;;;;;;;;;;4897029;29;20048;-77
2022/01/14 09:24:03;;;;;;;52.30;26.23;;;;;;;;;;4896524;29;20529;-76
2022/01/14 09:26:31;;;;;;;55.35;26.83;;;;;;;;;;4895325;29;20048;-76
2022/01/14 09:28:59;;;;;;;51.63;27.42;;;;;;;;;;4895836;29;20088;-76
2022/01/14 09:31:26;;;;;;;50.10;27.83;;;;;;;;;;4894912;29;20064;-76
2022/01/14 09:33:53;;;;;;;59.58;27.63;;;;;;;;;;4893851;29;20057;-76
2022/01/14 09:36:20;;;;;;;55.20;28.08;;;;;;;;;;4897268;29;20505;-77
2022/01/14 09:38:47;;;;;;;53.65;26.73;;;;;;;;;;4895839;29;20072;-76
2022/01/14 09:41:14;;;;;;;58.50;28.95;;;;;;;;;;4895571;29;20069;-76
2022/01/14 09:43:41;;;;;;;51.90;28.13;;;;;;;;;;4895794;29;20060;-76
2022/01/14 09:46:10;;;;;;;52.17;28.45;;;;;;;;;;4892702;29;20077;-78
2022/01/14 09:48:39;;;;;;;54.33;28.45;;;;;;;;;;4896109;29;20076;-76
2022/01/14 09:51:06;;;;;;;51.75;27.80;;;;;;;;;;4894380;29;20068;-76
2022/01/14 09:53:33;;;;;;;50.97;27.90;;;;;;;;;;4895580;29;20592;-76
2022/01/14 09:56:02;;;;;;;55.65;28.02;;;;;;;;;;4895785;29;20077;-76
2022/01/14 09:58:35;;;;;;;51.33;26.80;;;;;;;;;;4894407;29;20386;-76
2022/01/14 10:01:10;;;;;;;54.88;28.73;;;;;;;;;;4876523;29;20485;-76
2022/01/14 10:03:59;;;;;;;50.92;28.73;;;;;;;;;;4896624;29;20041;-76
2022/01/14 10:06:47;;;;;;;60.60;29.88;;;;;;;;;;4904542;29;20461;-76
2022/01/14 10:09:20;;;;;;;60.00;29.63;;;;;;;;;;4885519;29;20080;-76
2022/01/14 10:12:05;;;;;;;62.17;32.22;;;;;;;;;;4893810;29;20056;-77
2022/01/14 10:14:35;;;;;;;58.67;30.20;;;;;;;;;;4894920;29;20032;-77
2022/01/14 10:17:04;;;;;;;55.63;30.25;;;;;;;;;;4895536;29;20076;-77
2022/01/14 10:19:42;;;;;;;63.05;32.08;;;;;;;;;;4894501;29;20092;-76
2022/01/14 10:22:26;;;;;;;64.07;31.38;;;;;;;;;;4877896;29;20072;-77
2022/01/14 10:24:53;;;;;;;61.47;32.60;;;;;;;;;;4876198;29;20108;-77
2022/01/14 10:27:37;;;;;;;61.67;31.55;;;;;;;;;;4897449;29;20084;-77
2022/01/14 10:30:19;;;;;;;64.13;31.67;;;;;;;;;;4895308;29;20209;-77
2022/01/14 10:32:56;;;;;;;64.47;31.50;;;;;;;;;;4894778;29;20108;-77
2022/01/14 10:35:26;;;;;;;60.17;30.67;;;;;;;;;;4894313;29;20076;-77
2022/01/14 10:38:01;;;;;;;65.90;33.50;;;;;;;;;;4894866;29;20060;-79
2022/01/14 10:40:29;;;;;;;61.58;32.08;;;;;;;;;;4893919;29;20052;-79
2022/01/14 10:43:03;;;;;;;70.90;34.38;;;;;;;;;;4891537;29;20056;-76
2022/01/14 10:45:50;;;;;;;66.43;34.80;;;;;;;;;;4905941;29;20048;-76
2022/01/14 10:48:31;;;;;;;71.72;34.78;;;;;;;;;;4895887;29;20052;-76
2022/01/14 10:51:01;;;;;;;63.67;33.08;;;;;;;;;;4895022;29;20068;-79
2022/01/14 10:53:37;;;;;;;67.55;34.53;;;;;;;;;;4894177;29;20104;-76
2022/01/14 10:56:09;;;;;;;71.10;34.95;;;;;;;;;;4894072;29;20052;-78
2022/01/14 10:58:39;;;;;;;69.20;35.42;;;;;;;;;;4878115;29;20052;-76
2022/01/14 11:01:15;;;;;;;68.47;34.95;;;;;;;;;;4890957;29;20060;-76
2022/01/14 11:03:52;;;;;;;71.88;35.40;;;;;;;;;;4877917;29;20049;-76
2022/01/14 11:06:25;;;;;;;65.85;34.58;;;;;;;;;;4896102;29;20545;-76
2022/01/14 11:09:08;;;;;;;71.05;35.97;;;;;;;;;;4887123;29;20544;-78
2022/01/14 11:11:37;;;;;;;70.35;33.95;;;;;;;;;;4891931;29;20076;-79
2022/01/14 11:14:05;;;;;;;73.90;37.78;;;;;;;;;;4893967;29;20387;-78
2022/01/14 11:16:32;;;;;;;88.25;44.90;;;;;;;;;;4893558;29;20059;-76
2022/01/14 11:19:01;;;;;;;77.47;37.63;;;;;;;;;;4876179;29;20055;-77
2022/01/14 11:24:19;;;;;;;316.48;150.50;;;;;;;;;;4895521;29;20056;-77
2022/01/14 11:26:48;;;;;;;161.45;80.60;;;;;;;;;;4893786;29;20069;-77
2022/01/14 11:29:17;;;;;;;73.75;36.67;;;;;;;;;;4894153;29;20421;-77
2022/01/14 11:31:44;;;;;;;71.72;36.35;;;;;;;;;;4894158;29;20206;-77
2022/01/14 11:34:31;;;;;;;89.90;45.97;;;;;;;;;;4875386;29;20053;-77
2022/01/14 11:37:00;;;;;;;86.07;47.63;;;;;;;;;;4894315;29;20112;-77
2022/01/14 11:39:31;;;;;;;72.25;35.70;;;;;;;;;;4907279;29;20417;-77
2022/01/14 11:42:09;;;;;;;75.28;39.10;;;;;;;;;;4884160;29;20060;-77
2022/01/14 11:45:02;;;;;;;85.93;47.72;;;;;;;;;;4897706;29;20048;-77
2022/01/14 11:47:46;;;;;;;73.93;40.20;;;;;;;;;;4898142;29;20505;-77
2022/01/14 11:50:19;;;;;;;76.10;39.08;;;;;;;;;;4892399;29;20911;-78
2022/01/14 11:52:47;;;;;;;72.13;38.33;;;;;;;;;;4891568;29;20049;-78
2022/01/14 11:55:22;;;;;;;73.68;36.92;;;;;;;;;;4891542;29;20076;-78
2022/01/14 11:57:54;;;;;;;68.95;35.50;;;;;;;;;;4875109;29;20437;-79
2022/01/14 12:00:27;;;;;;;73.97;38.42;;;;;;;;;;4891011;29;20493;-78
2022/01/14 12:03:26;;;;;;;70.22;35.67;;;;;;;;;;4873278;29;20053;-79
2022/01/14 12:05:54;;;;;;;;;;;;;;;;;;4891826;29;20429;-78
2022/01/14 12:08:30;;;;;;;89.97;53.00;;;;;;;;;;4890970;29;19923;-78
2022/01/14 12:11:07;;;;;;;81.03;42.85;;;;;;;;;;4875092;29;20372;-78
2022/01/14 12:13:40;;;;;;;70.97;38.33;;;;;;;;;;4891567;29;20517;-77
2022/01/14 12:16:37;;;;;;;69.88;38.30;;;;;;;;;;4890907;29;20059;-78
2022/01/14 12:19:09;;;;;;;79.82;42.10;;;;;;;;;;4890783;29;20048;-77
2022/01/14 12:21:41;;;;;;;66.82;36.15;;;;;;;;;;4891668;29;20589;-78
2022/01/14 12:24:21;;;;;;;73.45;36.85;;;;;;;;;;4893723;29;20067;-76
2022/01/14 12:27:17;;;;;;;66.70;36.22;;;;;;;;;;4892328;29;20060;-76
2022/01/14 12:29:50;;;;;;;69.88;36.78;;;;;;;;;;4900408;29;20072;-76
2022/01/14 12:32:43;;;;;;;76.53;40.65;;;;;;;;;;4903059;29;20107;-77
2022/01/14 12:35:26;;;;;;;69.13;35.40;;;;;;;;;;4901662;29;20123;-75
2022/01/14 12:37:56;;;;;;;69.82;35.97;;;;;;;;;;4897766;29;20044;-78
2022/01/14 12:40:30;;;;;;;70.10;36.60;;;;;;;;;;4877769;29;20794;-76
2022/01/14 12:43:03;;;;;;;67.38;38.35;;;;;;;;;;4894318;29;20049;-76
2022/01/14 12:45:35;;;;;;;76.60;38.65;;;;;;;;;;4898569;29;20068;-76
2022/01/14 12:48:18;;;;;;;68.82;37.03;;;;;;;;;;4896689;29;20843;-76
2022/01/14 12:50:46;;;;;;;70.95;37.60;;;;;;;;;;4896457;29;20532;-76
2022/01/14 12:53:18;;;;;;;71.22;37.30;;;;;;;;;;4896776;29;20601;-76
2022/01/14 12:55:45;;;;;;;73.28;37.65;;;;;;;;;;4896565;29;20104;-76
2022/01/14 12:58:12;;;;;;;87.40;44.03;;;;;;;;;;4893047;29;20049;-76
2022/01/14 13:00:40;;;;;;;72.10;38.50;;;;;;;;;;4880255;29;20107;-76
2022/01/14 13:03:14;;;;;;;70.10;37.30;;;;;;;;;;4896935;29;20093;-76
2022/01/14 13:05:41;;;;;;;71.20;37.70;;;;;;;;;;4897949;29;20462;-76
2022/01/14 13:08:08;;;;;;;68.30;38.72;;;;;;;;;;4893161;29;20045;-76
2022/01/14 13:10:35;;;;;;;66.18;36.17;;;;;;;;;;4885763;29;20229;-77
2022/01/14 13:13:04;;;;;;;70.32;37.30;;;;;;;;;;4892558;29;20429;-76
2022/01/14 13:15:32;;;;;;;;;;;;;;;;;;4898431;29;20044;-76
2022/01/14 13:18:02;;;;;;;65.00;36.67;;;;;;;;;;4897177;29;19923;-76
2022/01/14 13:20:30;;;;;;;67.35;37.17;;;;;;;;;;4895586;29;20741;-76
2022/01/14 13:22:58;;;;;;;68.20;37.08;;;;;;;;;;4896118;29;20096;-76
2022/01/14 13:25:28;;;;;;;61.78;36.58;;;;;;;;;;4894586;29;20063;-76
2022/01/14 13:27:57;;;;;;;60.90;35.30;;;;;;;;;;4893623;29;20123;-76
2022/01/14 13:30:37;;;;;;;58.60;33.85;;;;;;;;;;4898070;29;20055;-76
2022/01/14 13:33:12;;;;;;;66.13;36.10;;;;;;;;;;4897623;29;20534;-75
2022/01/14 13:35:40;;;;;;;62.25;36.70;;;;;;;;;;4896208;29;20510;-76
2022/01/14 13:38:10;;;;;;;60.58;35.70;;;;;;;;;;4897532;29;20132;-76
2022/01/14 13:40:45;;;;;;;55.60;34.28;;;;;;;;;;4895959;29;20506;-76
2022/01/14 13:43:21;;;;;;;69.20;36.42;;;;;;;;;;4894069;29;20513;-76
2022/01/14 13:46:02;;;;;;;61.20;35.22;;;;;;;;;;4894817;29;20147;-76
2022/01/14 13:48:42;;;;;;;64.85;36.13;;;;;;;;;;4905766;29;20063;-77
2022/01/14 13:51:12;;;;;;;68.85;38.85;;;;;;;;;;4897996;29;20068;-76
2022/01/14 13:53:45;;;;;;;71.00;37.70;;;;;;;;;;4895771;29;20044;-76
2022/01/14 13:56:17;;;;;;;63.10;34.70;;;;;;;;;;4894515;29;20044;-76
2022/01/14 13:58:52;;;;;;;70.05;39.53;;;;;;;;;;4895482;29;20056;-77
2022/01/14 14:01:19;;;;;;;66.72;35.35;;;;;;;;;;4893006;29;20045;-76
2022/01/14 14:03:58;;;;;;;65.50;36.95;;;;;;;;;;4895302;29;20053;-76
2022/01/14 14:06:42;;;;;;;66.57;37.70;;;;;;;;;;4896358;29;20052;-76
2022/01/14 14:17:15;;;;;;;63.63;37.03;;;;;;;;;;4894756;29;20049;-77
2022/01/14 14:19:46;;;;;;;60.22;34.65;;;;;;;;;;4895249;29;20040;-76
2022/01/14 14:22:20;;;;;;;65.90;35.78;;;;;;;;;;4893172;29;20068;-76
2022/01/14 14:24:54;;;;;;;60.90;34.38;;;;;;;;;;4893929;29;20056;-76
2022/01/14 14:27:22;;;;;;;59.63;36.15;;;;;;;;;;4897289;29;20461;-76
2022/01/14 14:29:51;;;;;;;64.22;37.13;;;;;;;;;;4895052;29;20449;-76
2022/01/14 14:32:24;;;;;;;62.58;34.92;;;;;;;;;;4894300;29;20044;-76
2022/01/14 14:34:51;;;;;;;62.15;35.35;;;;;;;;;;4894765;29;20048;-76
2022/01/14 14:37:21;;;;;;;58.97;35.45;;;;;;;;;;4892735;29;20060;-76
2022/01/14 14:39:47;;;;;;;69.80;39.67;;;;;;;;;;4877455;29;20048;-76
2022/01/14 14:42:14;;;;;;;57.17;33.30;;;;;;;;;;4896215;29;20052;-76
2022/01/14 14:44:41;;;;;;;69.38;44.45;;;;;;;;;;4894923;29;20585;-76
2022/01/14 14:47:10;;;;;;;55.28;33.25;;;;;;;;;;4894440;29;20131;-76
2022/01/14 14:49:36;;;;;;;61.08;35.08;;;;;;;;;;4894954;29;20568;-76
2022/01/14 14:52:05;;;;;;;76.75;44.83;;;;;;;;;;4874153;29;20551;-75
2022/01/14 14:54:32;;;;;;;66.93;38.90;;;;;;;;;;4879823;29;20079;-76
2022/01/14 14:56:59;;;;;;;71.07;41.30;;;;;;;;;;4896130;29;20139;-76
2022/01/14 14:59:25;;;;;;;58.95;34.92;;;;;;;;;;4893900;29;20053;-76
2022/01/14 15:01:53;;;;;;;70.35;39.03;;;;;;;;;;4895545;29;20134;-76
2022/01/14 15:04:20;;;;;;;64.25;36.65;;;;;;;;;;4891459;29;20084;-77
2022/01/14 15:06:47;;;;;;;67.97;36.92;;;;;;;;;;4894265;29;20056;-77
2022/01/14 15:09:14;;;;;;;64.95;37.75;;;;;;;;;;4883275;29;20068;-76
2022/01/14 15:11:41;;;;;;;73.65;39.83;;;;;;;;;;4875139;29;20049;-76
2022/01/14 15:14:08;;;;;;;71.78;39.45;;;;;;;;;;4893764;29;20155;-76
2022/01/14 15:19:01;;;;;;;66.63;35.60;;;;;;;;;;4890986;29;20572;-76
2022/01/14 15:21:28;;;;;;;94.07;53.15;;;;;;;;;;4903763;29;20505;-76
2022/01/14 15:23:54;;;;;;;71.28;37.65;;;;;;;;;;4894232;29;20045;-76
2022/01/14 15:26:21;;;;;;;93.68;52.13;;;;;;;;;;4893491;29;20076;-75
2022/01/14 15:28:48;;;;;;;91.70;51.33;;;;;;;;;;4894739;29;20103;-76
2022/01/14 15:31:15;;;;;;;62.35;34.97;;;;;;;;;;4891407;29;20053;-76
2022/01/14 15:33:43;;;;;;;67.85;38.25;;;;;;;;;;4894303;29;20498;-76
2022/01/14 15:36:09;;;;;;;83.20;43.60;;;;;;;;;;4878525;29;20453;-76
2022/01/14 15:38:36;;;;;;;74.15;40.70;;;;;;;;;;4878826;29;20514;-76
2022/01/14 15:41:03;;;;;;;70.10;38.60;;;;;;;;;;4895261;29;20086;-76
2022/01/14 15:43:31;;;;;;;64.28;35.42;;;;;;;;;;4893200;29;20056;-76
2022/01/14 15:46:00;;;;;;;69.68;37.90;;;;;;;;;;4890883;29;20527;-76
2022/01/14 15:48:27;;;;;;;70.78;36.92;;;;;;;;;;4896417;29;20045;-76
2022/01/14 15:51:03;;;;;;;64.35;34.60;;;;;;;;;;4895152;29;20052;-76
2022/01/14 15:53:33;;;;;;;;;;;;;;;;;;4894163;29;20471;-76
2022/01/14 15:55:59;;;;;;;66.95;36.50;;;;;;;;;;4894314;29;19924;-76
2022/01/14 15:58:30;;;;;;;61.60;35.08;;;;;;;;;;4893424;29;20528;-76
2022/01/14 16:00:56;;;;;;;106.30;48.50;;;;;;;;;;4890827;29;20053;-75
2022/01/14 16:03:23;;;;;;;97.43;48.05;;;;;;;;;;4896071;29;20044;-76
2022/01/14 16:05:50;;;;;;;74.20;40.17;;;;;;;;;;4877369;29;20059;-76
2022/01/14 16:08:20;;;;;;;71.32;37.50;;;;;;;;;;4888811;29;20573;-76
2022/01/14 16:10:47;;;;;;;73.07;39.65;;;;;;;;;;4884864;29;20051;-76
2022/01/14 16:13:15;;;;;;;77.80;42.40;;;;;;;;;;4891346;29;20045;-75
2022/01/14 16:15:42;;;;;;;71.35;38.20;;;;;;;;;;4894222;29;20044;-75
2022/01/14 16:18:08;;;;;;;67.00;36.97;;;;;;;;;;4894522;29;20077;-76
2022/01/14 16:20:35;;;;;;;64.55;36.03;;;;;;;;;;4895164;29;20156;-76
2022/01/14 16:23:02;;;;;;;78.40;44.08;;;;;;;;;;4880335;29;20087;-75
2022/01/14 16:25:29;;;;;;;79.18;42.25;;;;;;;;;;4895913;29;20056;-74
2022/01/14 16:27:59;;;;;;;73.22;43.60;;;;;;;;;;4894995;29;20045;-75
2022/01/14 16:30:27;;;;;;;97.38;56.13;;;;;;;;;;4903638;29;20437;-76
2022/01/14 16:32:54;;;;;;;90.80;50.40;;;;;;;;;;4901258;29;20056;-74
2022/01/14 16:35:20;;;;;;;75.05;41.85;;;;;;;;;;4900988;29;20059;-77
2022/01/14 16:37:47;;;;;;;76.00;41.75;;;;;;;;;;4901291;29;20100;-75
2022/01/14 16:40:16;;;;;;;70.85;38.67;;;;;;;;;;4901053;29;20048;-75
2022/01/14 16:42:44;;;;;;;83.88;46.95;;;;;;;;;;4903621;29;20044;-74
2022/01/14 16:45:11;;;;;;;73.95;39.58;;;;;;;;;;4902101;29;20075;-76
2022/01/14 16:47:43;;;;;;;86.43;47.67;;;;;;;;;;4901574;29;20044;-75
2022/01/14 16:50:14;;;;;;;91.45;49.22;;;;;;;;;;4898450;29;20058;-74
2022/01/14 16:52:42;;;;;;;75.63;38.88;;;;;;;;;;4899801;29;20144;-75
2022/01/14 16:55:11;;;;;;;66.68;35.30;;;;;;;;;;4895254;29;20105;-75
2022/01/14 16:57:40;;;;;;;65.33;35.67;;;;;;;;;;4897696;29;20076;-75
2022/01/14 17:00:10;;;;;;;71.13;36.70;;;;;;;;;;4895011;29;20513;-75
2022/01/14 17:02:37;;;;;;;70.03;36.03;;;;;;;;;;4892270;29;20076;-74
2022/01/14 17:05:04;;;;;;;74.68;37.45;;;;;;;;;;4895102;29;20485;-76
2022/01/14 17:07:31;;;;;;;72.90;38.33;;;;;;;;;;4906074;29;20104;-76
2022/01/14 17:09:58;;;;;;;74.00;37.50;;;;;;;;;;4897550;29;20056;-76
2022/01/14 17:12:44;;;;;;;69.80;35.67;;;;;;;;;;5049550;27;20396;-74
2022/01/14 17:15:11;;;;;;;74.88;37.30;;;;;;;;;;5046872;28;20095;-76
2022/01/14 17:17:38;;;;;;;87.93;35.90;;;;;;;;;;5044791;28;20485;-75
2022/01/14 17:20:05;;;;;;;85.72;38.95;;;;;;;;;;5046738;28;20106;-76
2022/01/14 17:22:34;;;;;;;74.00;38.40;;;;;;;;;;5049330;28;20048;-76
2022/01/14 17:25:02;;;;;;;74.88;38.50;;;;;;;;;;5049122;28;20639;-76
2022/01/14 17:27:30;;;;;;;92.38;42.22;;;;;;;;;;5054818;28;20045;-75
2022/01/14 17:29:56;;;;;;;88.68;44.42;;;;;;;;;;5051444;28;20099;-75
2022/01/14 17:32:24;;;;;;;84.10;42.85;;;;;;;;;;5052699;28;20126;-75
2022/01/14 17:34:51;;;;;;;85.35;45.00;;;;;;;;;;5061073;28;20606;-75
2022/01/14 17:37:18;;;;;;;82.63;41.50;;;;;;;;;;5047643;28;20501;-76
2022/01/14 17:39:45;;;;;;;93.95;51.22;;;;;;;;;;5047859;28;20076;-76
2022/01/14 17:42:16;;;;;;;79.65;41.42;;;;;;;;;;5048185;28;20091;-76
2022/01/14 17:44:45;;;;;;;80.75;39.75;;;;;;;;;;5061076;28;20102;-77
2022/01/14 17:47:13;;;;;;;80.80;41.38;;;;;;;;;;5048398;28;20049;-76
2022/01/14 17:49:41;;;;;;;82.25;42.10;;;;;;;;;;5054461;28;20052;-76
2022/01/14 17:52:08;;;;;;;84.75;45.58;;;;;;;;;;5053630;28;20045;-76
2022/01/14 17:54:35;;;;;;;80.10;44.63;;;;;;;;;;5054625;28;20927;-76
2022/01/14 17:57:03;;;;;;;87.60;44.17;;;;;;;;;;5050294;28;20566;-75
2022/01/14 17:59:30;;;;;;;82.65;45.00;;;;;;;;;;5050519;28;20115;-76
2022/01/14 18:01:58;;;;;;;86.57;42.67;;;;;;;;;;5062078;27;20606;-76
2022/01/14 18:04:29;;;;;;;96.95;50.38;;;;;;;;;;5055147;28;20064;-75
2022/01/14 18:06:56;;;;;;;91.57;46.58;;;;;;;;;;5057418;28;20052;-77
2022/01/14 18:09:26;;;;;;;91.13;43.92;;;;;;;;;;5061093;28;20040;-76
2022/01/14 18:12:04;;;;;;;104.80;55.25;;;;;;;;;;5039271;28;20053;-76
2022/01/14 18:14:33;;;;;;;90.43;47.53;;;;;;;;;;5040357;28;20436;-76
2022/01/14 18:17:00;;;;;;;113.70;60.90;;;;;;;;;;5036433;28;20500;-76
2022/01/14 18:19:27;;;;;;;95.45;44.97;;;;;;;;;;5057633;28;20397;-76
2022/01/14 18:21:54;;;;;;;89.97;43.40;;;;;;;;;;5051533;28;20121;-76
2022/01/14 18:24:21;;;;;;;112.68;54.83;;;;;;;;;;5029866;28;20044;-76
2022/01/14 18:26:47;;;;;;;114.22;57.63;;;;;;;;;;5037963;28;20441;-76
2022/01/14 18:29:14;;;;;;;151.65;81.28;;;;;;;;;;5042348;28;20091;-76
2022/01/14 18:31:41;;;;;;;133.02;62.92;;;;;;;;;;5047392;28;20055;-76
2022/01/14 18:34:10;;;;;;;153.37;75.97;;;;;;;;;;5037843;28;20054;-76
2022/01/14 18:36:37;;;;;;;129.27;62.28;;;;;;;;;;5033228;28;20098;-76
2022/01/14 18:39:05;;;;;;;109.22;54.35;;;;;;;;;;5042366;28;20048;-76
2022/01/14 18:41:32;;;;;;;92.13;42.80;;;;;;;;;;5026394;28;20053;-76
2022/01/14 18:43:59;;;;;;;97.00;48.25;;;;;;;;;;5038942;28;20095;-76
2022/01/14 18:46:29;;;;;;;107.03;54.15;;;;;;;;;;5038355;28;20049;-76
2022/01/14 18:49:00;;;;;;;96.13;47.08;;;;;;;;;;5024727;28;20045;-76
2022/01/14 18:51:27;;;;;;;99.93;52.05;;;;;;;;;;5076930;28;20045;-76
2022/01/14 18:53:54;;;;;;;105.20;49.13;;;;;;;;;;5045021;28;20088;-76
2022/01/14 18:56:23;;;;;;;104.30;50.05;;;;;;;;;;5037160;28;20061;-76
2022/01/14 18:58:55;;;;;;;109.93;49.75;;;;;;;;;;5044550;28;20053;-76
2022/01/14 19:01:22;;;;;;;;;;;;;;;;;;5036001;28;20472;-76
2022/01/14 19:03:49;;;;;;;102.50;48.67;;;;;;;;;;5040448;28;20300;-77
2022/01/14 19:06:16;;;;;;;122.60;52.95;;;;;;;;;;5041264;28;20045;-77
2022/01/14 19:08:43;;;;;;;109.45;49.50;;;;;;;;;;5033868;28;20089;-75
2022/01/14 19:11:11;;;;;;;94.88;45.05;;;;;;;;;;5042495;28;20057;-75
2022/01/14 19:13:49;;;;;;;89.10;41.20;;;;;;;;;;5043329;28;20049;-75
2022/01/14 19:16:17;;;;;;;89.78;42.47;;;;;;;;;;5040084;28;20033;-75
2022/01/14 19:18:44;;;;;;;94.28;44.20;;;;;;;;;;5044822;28;20049;-75
2022/01/14 19:21:11;;;;;;;92.53;41.70;;;;;;;;;;5042231;28;20068;-76
2022/01/14 19:23:38;;;;;;;91.97;41.60;;;;;;;;;;5048680;28;20098;-76
2022/01/14 19:26:04;;;;;;;97.57;44.17;;;;;;;;;;5033928;28;20447;-75
2022/01/14 19:28:31;;;;;;;96.72;43.95;;;;;;;;;;5043507;28;20077;-78
2022/01/14 19:30:58;;;;;;;94.30;44.00;;;;;;;;;;5037377;28;20034;-75
2022/01/14 19:33:24;;;;;;;90.35;42.33;;;;;;;;;;5048715;28;20394;-76
2022/01/14 19:35:51;;;;;;;96.93;45.28;;;;;;;;;;5042397;28;20067;-76
2022/01/14 19:38:18;;;;;;;101.10;45.38;;;;;;;;;;5039991;28;20045;-75
2022/01/14 19:40:44;;;;;;;94.72;42.95;;;;;;;;;;5045766;28;20103;-75
2022/01/14 19:43:12;;;;;;;94.75;43.53;;;;;;;;;;5040686;28;20041;-75
2022/01/14 19:45:40;;;;;;;100.93;46.05;;;;;;;;;;5045410;28;20513;-75
2022/01/14 19:48:07;;;;;;;103.37;48.67;;;;;;;;;;5042283;28;20044;-76
2022/01/14 19:50:36;;;;;;;93.78;43.55;;;;;;;;;;5038210;28;20053;-76
2022/01/14 19:53:02;;;;;;;;;;;;;;;;;;5041847;28;20049;-75
2022/01/14 19:55:29;;;;;;;98.18;46.72;;;;;;;;;;5032809;28;19973;-75
2022/01/14 19:57:56;;;;;;;104.15;47.63;;;;;;;;;;5026422;28;20045;-75
2022/01/14 20:00:22;;;;;;;109.63;50.50;;;;;;;;;;5030209;28;20061;-75
2022/01/14 20:02:49;;;;;;;118.63;54.47;;;;;;;;;;5029326;28;20046;-75
2022/01/14 20:05:16;;;;;;;105.10;50.28;;;;;;;;;;5038204;28;20049;-76
2022/01/14 20:07:43;;;;;;;103.93;50.78;;;;;;;;;;5030173;28;20056;-75
2022/01/14 20:10:10;;;;;;;103.50;47.55;;;;;;;;;;5045033;28;20571;-75
2022/01/14 20:12:40;;;;;;;99.53;45.63;;;;;;;;;;5046908;28;20103;-76
2022/01/14 20:15:12;;;;;;;96.85;42.88;;;;;;;;;;5048362;28;20091;-76
2022/01/14 20:17:39;;;;;;;97.30;44.72;;;;;;;;;;5036934;28;20042;-76
2022/01/14 20:20:10;;;;;;;104.30;45.63;;;;;;;;;;5033212;28;20407;-76
2022/01/14 20:22:36;;;;;;;101.53;44.65;;;;;;;;;;5034115;28;20080;-75
2022/01/14 20:25:05;;;;;;;103.80;45.97;;;;;;;;;;5044813;28;20041;-75
2022/01/14 20:27:32;;;;;;;99.40;46.10;;;;;;;;;;5044279;28;20098;-76
2022/01/14 20:29:58;;;;;;;103.13;44.83;;;;;;;;;;5045589;28;20279;-76
2022/01/14 20:32:26;;;;;;;103.28;45.50;;;;;;;;;;5043824;28;20563;-76
2022/01/14 20:34:53;;;;;;;98.68;45.10;;;;;;;;;;5047994;28;20106;-75
2022/01/14 20:37:20;;;;;;;101.60;46.03;;;;;;;;;;5045202;28;20453;-75
2022/01/14 20:39:48;;;;;;;103.63;44.83;;;;;;;;;;5047339;28;20080;-74
2022/01/14 20:42:15;;;;;;;99.60;44.83;;;;;;;;;;5048433;28;20045;-76
2022/01/14 20:44:45;;;;;;;104.25;45.88;;;;;;;;;;5054194;28;20060;-76
2022/01/14 20:47:11;;;;;;;98.50;44.47;;;;;;;;;;5054954;28;20141;-75
2022/01/14 20:49:38;;;;;;;103.07;45.83;;;;;;;;;;5054398;28;20114;-76
2022/01/14 20:52:05;;;;;;;108.07;46.85;;;;;;;;;;5044843;28;20061;-76
2022/01/14 20:54:34;;;;;;;101.25;45.13;;;;;;;;;;5044747;28;20055;-75
2022/01/14 20:57:02;;;;;;;98.85;44.28;;;;;;;;;;5045558;28;20106;-75
2022/01/14 20:59:31;;;;;;;107.38;47.58;;;;;;;;;;5036166;28;20504;-75
2022/01/14 21:01:57;;;;;;;103.38;44.75;;;;;;;;;;5049385;28;20144;-76
2022/01/14 21:04:24;;;;;;;108.18;48.28;;;;;;;;;;5044919;28;20045;-76
2022/01/14 21:06:51;;;;;;;108.90;47.70;;;;;;;;;;5047881;28;20520;-76
2022/01/14 21:09:18;;;;;;;102.25;46.55;;;;;;;;;;5051998;28;20072;-76
2022/01/14 21:11:44;;;;;;;102.50;46.13;;;;;;;;;;5046412;28;20500;-76
2022/01/14 21:14:15;;;;;;;111.25;48.42;;;;;;;;;;5050935;28;20040;-76
2022/01/14 21:16:44;;;;;;;100.50;46.35;;;;;;;;;;5053465;28;20059;-76
2022/01/14 21:19:10;;;;;;;;;;;;;;;;;;5051959;28;20095;-76
2022/01/14 21:21:39;;;;;;;105.90;46.47;;;;;;;;;;5055039;28;20391;-76
2022/01/14 21:24:06;;;;;;;106.88;47.50;;;;;;;;;;5043017;28;20052;-76
2022/01/14 21:26:32;;;;;;;108.22;47.30;;;;;;;;;;5041802;28;20053;-76
2022/01/14 21:28:59;;;;;;;106.30;47.22;;;;;;;;;;5027296;28;20065;-76
2022/01/14 21:31:27;;;;;;;113.75;48.28;;;;;;;;;;5037611;28;20403;-76
2022/01/14 21:33:54;;;;;;;108.68;48.42;;;;;;;;;;5041889;28;20513;-76
2022/01/14 21:36:21;;;;;;;109.85;47.70;;;;;;;;;;5042859;28;20080;-76
2022/01/14 21:38:48;;;;;;;106.32;46.75;;;;;;;;;;5024094;28;20579;-76
2022/01/14 21:41:14;;;;;;;104.68;47.80;;;;;;;;;;5028399;28;20061;-75
2022/01/14 21:43:41;;;;;;;110.85;48.15;;;;;;;;;;5024291;28;20049;-76